Time;durP1;ratioP1;P1;durP2;ratioP2;P2;SDS_P1;SDS_P2;PMS_P1;PMS_P2;Temp;Humidity;BMP_temperature;BMP_pressure;BME280_temperature;BME280_humidity;BME280_pressure;Samples;Min_cycle;Max_cycle;Signal;HPM_P1;HPM_P2
2022/04/16 00:02:02;;;;;;;27.65;20.73;;;;;;;;;;5066563;28;20049;-82
2022/04/16 00:04:29;;;;;;;28.50;22.13;;;;;;;;;;5069411;28;20037;-82
2022/04/16 00:06:55;;;;;;;29.65;20.55;;;;;;;;;;5064290;28;20049;-83
2022/04/16 00:09:21;;;;;;;29.73;22.80;;;;;;;;;;5068232;28;20045;-82
2022/04/16 00:11:48;;;;;;;29.00;20.38;;;;;;;;;;5065918;28;20108;-81
2022/04/16 00:14:15;;;;;;;30.88;22.02;;;;;;;;;;5065099;28;20082;-82
2022/04/16 00:16:44;;;;;;;31.27;22.30;;;;;;;;;;5051461;28;20075;-82
2022/04/16 00:19:11;;;;;;;33.00;21.40;;;;;;;;;;5068875;28;20041;-81
2022/04/16 00:21:37;;;;;;;28.85;22.10;;;;;;;;;;5065185;28;20053;-82
2022/04/16 00:24:04;;;;;;;27.88;21.73;;;;;;;;;;5057236;28;20071;-82
2022/04/16 00:26:30;;;;;;;29.58;20.52;;;;;;;;;;5067294;28;20060;-81
2022/04/16 00:28:59;;;;;;;29.88;22.38;;;;;;;;;;5061702;28;20049;-82
2022/04/16 00:31:28;;;;;;;30.35;23.23;;;;;;;;;;5058931;28;20072;-81
2022/04/16 00:33:54;;;;;;;30.58;23.55;;;;;;;;;;5065133;28;20033;-80
2022/04/16 00:36:21;;;;;;;33.75;25.70;;;;;;;;;;5065344;28;20037;-81
2022/04/16 00:38:47;;;;;;;31.17;24.45;;;;;;;;;;5065432;28;20049;-82
2022/04/16 00:41:13;;;;;;;37.00;24.65;;;;;;;;;;5068316;28;20040;-84
2022/04/16 00:43:39;;;;;;;33.65;24.75;;;;;;;;;;5061648;28;20041;-82
2022/04/16 00:46:05;;;;;;;34.80;25.50;;;;;;;;;;5066768;28;20045;-83
2022/04/16 00:48:31;;;;;;;33.60;24.25;;;;;;;;;;5058889;28;20053;-82
2022/04/16 00:50:59;;;;;;;35.88;24.60;;;;;;;;;;5049678;28;20072;-81
2022/04/16 00:53:25;;;;;;;37.60;24.98;;;;;;;;;;5062048;28;20041;-81
2022/04/16 00:55:52;;;;;;;32.85;24.00;;;;;;;;;;5061661;28;20048;-81
2022/04/16 00:58:18;;;;;;;31.63;23.63;;;;;;;;;;5055627;28;20684;-81
2022/04/16 01:00:44;;;;;;;30.95;22.98;;;;;;;;;;5067842;28;20048;-81
2022/04/16 01:03:10;;;;;;;34.20;23.83;;;;;;;;;;5060029;28;20037;-83
2022/04/16 01:05:37;;;;;;;36.15;23.30;;;;;;;;;;5067479;28;20037;-81
2022/04/16 01:08:04;;;;;;;35.35;23.60;;;;;;;;;;5067299;28;20037;-82
2022/04/16 01:10:31;;;;;;;35.45;24.25;;;;;;;;;;5050512;28;20148;-81
2022/04/16 01:12:58;;;;;;;35.08;24.25;;;;;;;;;;5059604;28;20049;-81
2022/04/16 01:15:25;;;;;;;31.70;22.95;;;;;;;;;;5065101;28;20056;-82
2022/04/16 01:17:52;;;;;;;29.40;22.17;;;;;;;;;;5056907;28;20037;-80
2022/04/16 01:20:18;;;;;;;36.67;25.67;;;;;;;;;;5066698;28;20040;-82
2022/04/16 01:22:45;;;;;;;35.53;25.63;;;;;;;;;;5050269;28;20467;-81
2022/04/16 01:25:11;;;;;;;35.97;26.33;;;;;;;;;;5060501;28;20045;-81
2022/04/16 01:27:43;;;;;;;33.53;26.17;;;;;;;;;;5059421;28;20048;-81
2022/04/16 01:30:09;;;;;;;35.85;26.50;;;;;;;;;;5054976;28;20444;-81
2022/04/16 01:32:36;;;;;;;37.53;25.35;;;;;;;;;;5049951;28;20041;-80
2022/04/16 01:35:04;;;;;;;38.88;27.27;;;;;;;;;;5064431;28;20033;-82
2022/04/16 01:37:34;;;;;;;34.75;25.92;;;;;;;;;;5067791;28;20453;-82
2022/04/16 01:40:00;;;;;;;37.17;26.00;;;;;;;;;;5063893;28;20057;-81
2022/04/16 01:42:29;;;;;;;37.40;27.40;;;;;;;;;;5054544;28;20120;-81
2022/04/16 01:44:55;;;;;;;35.20;26.75;;;;;;;;;;5064468;28;20049;-81
2022/04/16 01:47:21;;;;;;;37.85;26.90;;;;;;;;;;5063449;28;20044;-82
2022/04/16 01:49:47;;;;;;;39.60;28.10;;;;;;;;;;5062562;28;20118;-81
2022/04/16 01:52:13;;;;;;;37.65;26.77;;;;;;;;;;5051766;28;20090;-82
2022/04/16 01:54:41;;;;;;;38.63;27.52;;;;;;;;;;5061973;28;20051;-81
2022/04/16 01:57:07;;;;;;;44.17;28.80;;;;;;;;;;5050756;28;20045;-83
2022/04/16 01:59:33;;;;;;;43.53;29.80;;;;;;;;;;5065369;28;20486;-82
2022/04/16 02:02:00;;;;;;;40.20;29.05;;;;;;;;;;5065972;28;20041;-83
2022/04/16 02:04:26;;;;;;;47.13;29.38;;;;;;;;;;5066428;28;20041;-81
2022/04/16 02:06:52;;;;;;;43.08;29.95;;;;;;;;;;5051330;28;20057;-81
2022/04/16 02:09:18;;;;;;;42.75;29.40;;;;;;;;;;5061427;28;20049;-82
2022/04/16 02:11:44;;;;;;;46.45;29.73;;;;;;;;;;5063843;28;20059;-82
2022/04/16 02:14:10;;;;;;;43.75;30.48;;;;;;;;;;5063118;28;20044;-83
2022/04/16 02:16:36;;;;;;;44.20;29.90;;;;;;;;;;5048710;28;20476;-81
2022/04/16 02:19:02;;;;;;;47.47;31.70;;;;;;;;;;5063741;28;20048;-81
2022/04/16 02:21:30;;;;;;;46.70;32.78;;;;;;;;;;5065078;28;20040;-82
2022/04/16 02:24:06;;;;;;;51.03;32.75;;;;;;;;;;5062085;28;20056;-83
2022/04/16 02:26:33;;;;;;;52.38;35.22;;;;;;;;;;5064236;28;20052;-82
2022/04/16 02:28:59;;;;;;;52.67;34.33;;;;;;;;;;5036063;28;20072;-83
2022/04/16 02:31:26;;;;;;;51.08;34.20;;;;;;;;;;5039624;28;20104;-82
2022/04/16 02:33:52;;;;;;;45.80;33.92;;;;;;;;;;5062367;28;20191;-82
2022/04/16 02:36:19;;;;;;;44.35;33.08;;;;;;;;;;5040880;28;20049;-83
2022/04/16 02:38:46;;;;;;;46.75;33.88;;;;;;;;;;5063841;28;20442;-83
2022/04/16 02:41:13;;;;;;;44.97;32.58;;;;;;;;;;5049231;28;20049;-82
2022/04/16 02:43:39;;;;;;;45.75;32.80;;;;;;;;;;5062009;28;20475;-83
2022/04/16 02:48:50;;;;;;;42.10;31.85;;;;;;;;;;5061920;28;20065;-83
2022/04/16 02:51:16;;;;;;;36.85;29.00;;;;;;;;;;5067719;28;20509;-82
2022/04/16 02:53:42;;;;;;;35.78;28.13;;;;;;;;;;5066615;28;20044;-83
2022/04/16 02:56:08;;;;;;;37.92;29.05;;;;;;;;;;5065881;28;20045;-83
2022/04/16 02:58:34;;;;;;;38.63;28.63;;;;;;;;;;5059721;28;20042;-82
2022/04/16 03:01:00;;;;;;;36.63;28.30;;;;;;;;;;5060595;28;20076;-82
2022/04/16 03:03:26;;;;;;;40.28;32.13;;;;;;;;;;5067205;28;20041;-83
2022/04/16 03:05:52;;;;;;;43.13;31.40;;;;;;;;;;5048747;28;20052;-82
2022/04/16 03:08:19;;;;;;;44.22;33.60;;;;;;;;;;5065584;28;20045;-82
2022/04/16 03:10:45;;;;;;;41.30;32.70;;;;;;;;;;5067763;28;20077;-82
2022/04/16 03:13:11;;;;;;;43.22;32.40;;;;;;;;;;5066593;28;20047;-82
2022/04/16 03:18:22;;;;;;;31.42;25.65;;;;;;;;;;5066539;28;20055;-83
2022/04/16 03:20:49;;;;;;;30.80;25.30;;;;;;;;;;5068707;28;20041;-82
2022/04/16 03:23:15;;;;;;;30.58;22.95;;;;;;;;;;5066446;28;20096;-82
2022/04/16 03:25:43;;;;;;;30.20;23.02;;;;;;;;;;5067452;28;20075;-82
2022/04/16 03:28:09;;;;;;;30.00;24.00;;;;;;;;;;5066643;28;20098;-81
2022/04/16 03:30:35;;;;;;;33.67;24.63;;;;;;;;;;5059649;28;20487;-82
2022/04/16 03:33:01;;;;;;;31.30;22.90;;;;;;;;;;5055875;28;20461;-83
2022/04/16 03:35:27;;;;;;;29.73;23.23;;;;;;;;;;5060850;28;20048;-83
2022/04/16 03:37:54;;;;;;;31.33;22.92;;;;;;;;;;5062805;28;20740;-83
2022/04/16 03:40:24;;;;;;;30.35;23.15;;;;;;;;;;5063559;28;20045;-82
2022/04/16 03:42:51;;;;;;;32.30;24.02;;;;;;;;;;5062581;28;20045;-83
2022/04/16 03:45:18;;;;;;;28.67;22.90;;;;;;;;;;5055206;28;20041;-81
2022/04/16 03:47:45;;;;;;;29.73;23.13;;;;;;;;;;5060468;28;20084;-82
2022/04/16 03:50:12;;;;;;;31.77;22.90;;;;;;;;;;5064604;28;20049;-84
2022/04/16 03:52:41;;;;;;;30.42;23.20;;;;;;;;;;5045082;28;20052;-83
2022/04/16 04:00:43;;;;;;;30.13;23.85;;;;;;;;;;5059923;28;20045;-84
2022/04/16 04:03:09;;;;;;;34.00;23.40;;;;;;;;;;5061068;28;20056;-83
2022/04/16 04:05:37;;;;;;;30.40;22.23;;;;;;;;;;5063687;28;20120;-84
2022/04/16 04:08:04;;;;;;;30.17;22.38;;;;;;;;;;5059822;28;20139;-83
2022/04/16 04:10:30;;;;;;;28.25;21.65;;;;;;;;;;5063009;28;20048;-82
2022/04/16 04:12:56;;;;;;;30.08;21.88;;;;;;;;;;5063355;28;20052;-82
2022/04/16 04:15:23;;;;;;;30.10;22.55;;;;;;;;;;5061055;28;20461;-82
2022/04/16 04:17:50;;;;;;;30.95;22.25;;;;;;;;;;5054524;28;20109;-82
2022/04/16 04:20:16;;;;;;;29.02;21.30;;;;;;;;;;5053192;28;20042;-82
2022/04/16 04:22:42;;;;;;;32.13;21.52;;;;;;;;;;5050791;28;20103;-83
2022/04/16 04:25:08;;;;;;;29.17;21.10;;;;;;;;;;5058383;28;20060;-82
2022/04/16 04:27:34;;;;;;;28.23;20.38;;;;;;;;;;5061380;28;20056;-82
2022/04/16 04:30:01;;;;;;;26.48;19.20;;;;;;;;;;5062587;28;20052;-81
2022/04/16 04:32:28;;;;;;;27.75;20.00;;;;;;;;;;5063669;28;20044;-81
2022/04/16 04:34:54;;;;;;;26.38;18.98;;;;;;;;;;5055830;28;20041;-81
2022/04/16 04:37:20;;;;;;;27.85;19.33;;;;;;;;;;5063468;28;20037;-81
2022/04/16 04:39:46;;;;;;;27.15;19.77;;;;;;;;;;5051230;28;20045;-82
2022/04/16 04:42:12;;;;;;;28.45;19.45;;;;;;;;;;5052748;28;20096;-80
2022/04/16 04:44:38;;;;;;;29.70;20.42;;;;;;;;;;5062764;28;20516;-81
2022/04/16 04:47:04;;;;;;;26.67;19.25;;;;;;;;;;5065776;28;20101;-81
2022/04/16 04:49:30;;;;;;;27.38;18.65;;;;;;;;;;5064883;28;20048;-81
2022/04/16 04:51:56;;;;;;;27.48;18.58;;;;;;;;;;5065518;28;20072;-81
2022/04/16 04:54:22;;;;;;;26.83;18.65;;;;;;;;;;5063640;28;20045;-81
2022/04/16 04:56:48;;;;;;;26.98;18.27;;;;;;;;;;5045414;28;20045;-82
2022/04/16 04:59:14;;;;;;;22.17;15.93;;;;;;;;;;5059359;28;20103;-81
2022/04/16 05:01:40;;;;;;;22.25;16.75;;;;;;;;;;5065213;28;20071;-82
2022/04/16 05:04:06;;;;;;;25.23;17.90;;;;;;;;;;5067703;28;20509;-81
2022/04/16 05:06:32;;;;;;;27.00;17.17;;;;;;;;;;5052038;28;20044;-83
2022/04/16 05:08:59;;;;;;;23.67;17.45;;;;;;;;;;5055851;28;20045;-82
2022/04/16 05:11:25;;;;;;;27.25;18.42;;;;;;;;;;5065019;28;20045;-81
2022/04/16 05:13:51;;;;;;;23.73;17.00;;;;;;;;;;5064446;28;20072;-82
2022/04/16 05:16:17;;;;;;;27.88;17.92;;;;;;;;;;5064388;28;20037;-83
2022/04/16 05:18:43;;;;;;;24.17;15.68;;;;;;;;;;5041380;28;20081;-82
2022/04/16 05:21:09;;;;;;;25.50;15.27;;;;;;;;;;5055336;28;20048;-81
2022/04/16 05:23:39;;;;;;;23.55;16.88;;;;;;;;;;5055648;28;20096;-82
2022/04/16 05:26:05;;;;;;;22.58;16.33;;;;;;;;;;5052111;28;20045;-82
2022/04/16 05:28:31;;;;;;;21.98;14.85;;;;;;;;;;5061233;28;20103;-81
2022/04/16 05:30:59;;;;;;;21.05;14.43;;;;;;;;;;5061935;28;20091;-82
2022/04/16 05:36:10;;;;;;;23.48;15.18;;;;;;;;;;5066382;28;20111;-82
2022/04/16 05:38:37;;;;;;;22.35;15.85;;;;;;;;;;5059005;28;20041;-81
2022/04/16 05:41:03;;;;;;;22.33;15.15;;;;;;;;;;5065860;28;20045;-83
2022/04/16 05:43:29;;;;;;;20.85;13.82;;;;;;;;;;5060421;28;20521;-82
2022/04/16 05:45:55;;;;;;;21.70;14.35;;;;;;;;;;5061649;28;20041;-83
2022/04/16 05:48:21;;;;;;;25.20;14.98;;;;;;;;;;5063294;28;20067;-83
2022/04/16 05:50:47;;;;;;;20.23;13.77;;;;;;;;;;5065053;28;20053;-82
2022/04/16 05:53:14;;;;;;;20.45;14.05;;;;;;;;;;5055299;28;20049;-82
2022/04/16 05:55:40;;;;;;;20.42;13.20;;;;;;;;;;5057461;28;20056;-82
2022/04/16 05:58:07;;;;;;;19.15;12.60;;;;;;;;;;5057285;28;20120;-82
2022/04/16 06:00:33;;;;;;;18.10;12.05;;;;;;;;;;5060916;28;20702;-82
2022/04/16 06:03:00;;;;;;;17.70;11.77;;;;;;;;;;5061541;28;20041;-83
2022/04/16 06:05:27;;;;;;;16.70;11.48;;;;;;;;;;5062466;28;20072;-82
2022/04/16 06:07:53;;;;;;;16.92;11.68;;;;;;;;;;5058615;28;20418;-82
2022/04/16 06:10:19;;;;;;;18.05;11.82;;;;;;;;;;5063018;28;20049;-83
2022/04/16 06:12:45;;;;;;;16.88;11.80;;;;;;;;;;5062050;28;20147;-83
2022/04/16 06:15:11;;;;;;;16.90;11.63;;;;;;;;;;5050334;28;20064;-81
2022/04/16 06:17:37;;;;;;;14.50;11.25;;;;;;;;;;5065474;28;20067;-81
2022/04/16 06:20:04;;;;;;;17.13;10.77;;;;;;;;;;5064746;28;20084;-81
2022/04/16 06:22:31;;;;;;;17.15;10.82;;;;;;;;;;5062261;28;20101;-81
2022/04/16 06:24:57;;;;;;;15.80;10.57;;;;;;;;;;5058759;28;20143;-82
2022/04/16 06:27:26;;;;;;;16.15;11.10;;;;;;;;;;5056587;28;20049;-81
2022/04/16 06:29:52;;;;;;;15.70;11.43;;;;;;;;;;5062344;28;20072;-82
2022/04/16 06:32:18;;;;;;;15.20;10.98;;;;;;;;;;5059814;28;20486;-82
2022/04/16 06:34:44;;;;;;;15.40;10.82;;;;;;;;;;5054614;28;20083;-83
2022/04/16 06:37:10;;;;;;;14.10;10.15;;;;;;;;;;5048551;28;20045;-82
2022/04/16 06:39:37;;;;;;;13.98;9.75;;;;;;;;;;5061066;28;20087;-83
2022/04/16 06:42:03;;;;;;;14.38;9.43;;;;;;;;;;5059738;28;20072;-82
2022/04/16 06:44:31;;;;;;;15.68;9.85;;;;;;;;;;5033546;28;20069;-82
2022/04/16 06:46:57;;;;;;;12.18;8.20;;;;;;;;;;5057614;28;20511;-82
2022/04/16 06:49:25;;;;;;;10.30;6.40;;;;;;;;;;5059046;28;20071;-83
2022/04/16 06:51:51;;;;;;;8.45;5.85;;;;;;;;;;5060448;28;20084;-83
2022/04/16 06:54:17;;;;;;;8.75;4.93;;;;;;;;;;5060677;28;20044;-83
2022/04/16 06:56:43;;;;;;;8.18;4.20;;;;;;;;;;5060586;28;20414;-82
2022/04/16 06:59:09;;;;;;;8.48;4.00;;;;;;;;;;5063328;28;20048;-82
2022/04/16 07:01:35;;;;;;;7.55;4.03;;;;;;;;;;5061840;28;20037;-83
2022/04/16 07:04:01;;;;;;;7.72;3.60;;;;;;;;;;5060590;28;20048;-83
2022/04/16 07:06:27;;;;;;;8.23;3.75;;;;;;;;;;5058186;28;20450;-83
2022/04/16 07:08:53;;;;;;;7.53;4.15;;;;;;;;;;5042348;28;20522;-81
2022/04/16 07:11:19;;;;;;;6.80;3.42;;;;;;;;;;5046165;28;20049;-83
2022/04/16 07:13:45;;;;;;;6.18;3.25;;;;;;;;;;5062284;28;20049;-83
2022/04/16 07:16:11;;;;;;;7.93;3.22;;;;;;;;;;5058395;28;20039;-82
2022/04/16 07:18:37;;;;;;;6.50;3.40;;;;;;;;;;5060109;28;20128;-82
2022/04/16 07:21:03;;;;;;;7.20;3.40;;;;;;;;;;5062866;28;20094;-82
2022/04/16 07:23:29;;;;;;;7.88;3.72;;;;;;;;;;5062051;28;20105;-82
2022/04/16 07:25:56;;;;;;;6.82;3.35;;;;;;;;;;5080682;28;20063;-82
2022/04/16 07:28:22;;;;;;;7.30;3.63;;;;;;;;;;5047497;28;20045;-81
2022/04/16 07:30:49;;;;;;;7.50;3.83;;;;;;;;;;5061614;28;20124;-82
2022/04/16 07:33:15;;;;;;;7.55;3.80;;;;;;;;;;5061645;28;20037;-83
2022/04/16 07:35:41;;;;;;;6.85;3.25;;;;;;;;;;5070995;28;20036;-82
2022/04/16 07:38:07;;;;;;;8.18;4.07;;;;;;;;;;5066643;28;20217;-82
2022/04/16 07:40:34;;;;;;;8.32;3.97;;;;;;;;;;5068192;28;20076;-81
2022/04/16 07:43:01;;;;;;;7.70;3.90;;;;;;;;;;5065607;28;20045;-81
2022/04/16 07:45:27;;;;;;;6.80;3.60;;;;;;;;;;5065786;28;20041;-83
2022/04/16 07:47:53;;;;;;;7.75;3.78;;;;;;;;;;5066112;28;20445;-82
2022/04/16 07:50:19;;;;;;;8.20;4.13;;;;;;;;;;5065590;28;20048;-82
2022/04/16 07:52:45;;;;;;;7.55;3.83;;;;;;;;;;5056794;28;20483;-82
2022/04/16 07:55:11;;;;;;;7.05;3.40;;;;;;;;;;5043784;28;20068;-82
2022/04/16 07:57:37;;;;;;;7.20;3.67;;;;;;;;;;5047522;28;20072;-82
2022/04/16 08:00:04;;;;;;;7.18;3.88;;;;;;;;;;5062166;28;20112;-82
2022/04/16 08:02:30;;;;;;;7.30;3.63;;;;;;;;;;5055199;28;20064;-82
2022/04/16 08:04:56;;;;;;;8.07;4.10;;;;;;;;;;5059586;28;20518;-82
2022/04/16 08:07:27;;;;;;;7.25;4.05;;;;;;;;;;5064799;28;20052;-81
2022/04/16 08:09:53;;;;;;;9.88;4.28;;;;;;;;;;5064812;28;20048;-81
2022/04/16 08:12:19;;;;;;;7.10;4.20;;;;;;;;;;5058644;28;20045;-81
2022/04/16 08:14:45;;;;;;;6.50;3.92;;;;;;;;;;5060076;28;20045;-81
2022/04/16 08:17:11;;;;;;;7.20;3.90;;;;;;;;;;5064280;28;20048;-82
2022/04/16 08:19:37;;;;;;;8.02;3.63;;;;;;;;;;5065668;28;20041;-82
2022/04/16 08:22:07;;;;;;;6.97;3.35;;;;;;;;;;5064043;28;20045;-81
2022/04/16 08:24:41;;;;;;;9.55;3.92;;;;;;;;;;5063240;28;20144;-80
2022/04/16 08:27:08;;;;;;;7.13;3.40;;;;;;;;;;5061345;28;20049;-80
2022/04/16 08:29:35;;;;;;;8.48;3.90;;;;;;;;;;5066462;28;20049;-81
2022/04/16 08:32:01;;;;;;;7.38;3.65;;;;;;;;;;5060760;28;20049;-82
2022/04/16 08:34:27;;;;;;;6.45;3.30;;;;;;;;;;5049754;28;20399;-80
2022/04/16 08:36:53;;;;;;;7.75;3.80;;;;;;;;;;5062752;28;20048;-80
2022/04/16 08:39:19;;;;;;;10.68;4.45;;;;;;;;;;5063580;28;20045;-80
2022/04/16 08:41:45;;;;;;;11.02;6.00;;;;;;;;;;5047834;28;20037;-81
2022/04/16 08:44:14;;;;;;;8.90;4.20;;;;;;;;;;5064596;28;20041;-81
2022/04/16 08:46:40;;;;;;;6.95;3.53;;;;;;;;;;5065505;28;20047;-81
2022/04/16 08:49:07;;;;;;;7.38;3.30;;;;;;;;;;5065292;28;20105;-80
2022/04/16 08:51:33;;;;;;;5.43;2.33;;;;;;;;;;5064504;28;20045;-82
2022/04/16 08:53:59;;;;;;;5.20;2.20;;;;;;;;;;5061427;28;20047;-80
2022/04/16 08:56:26;;;;;;;4.85;1.80;;;;;;;;;;5064500;28;20053;-81
2022/04/16 08:58:53;;;;;;;5.70;1.83;;;;;;;;;;5055533;28;20045;-82
2022/04/16 09:01:19;;;;;;;6.50;2.15;;;;;;;;;;5066096;28;20321;-82
2022/04/16 09:03:48;;;;;;;4.57;1.75;;;;;;;;;;5064414;28;20041;-81
2022/04/16 09:06:21;;;;;;;5.95;2.20;;;;;;;;;;5065579;28;20087;-81
2022/04/16 09:08:47;;;;;;;6.28;2.10;;;;;;;;;;5062337;28;20072;-81
2022/04/16 09:11:13;;;;;;;4.88;1.90;;;;;;;;;;5046249;28;20403;-82
2022/04/16 09:13:53;;;;;;;5.82;1.90;;;;;;;;;;5062046;28;20045;-81
2022/04/16 09:16:20;;;;;;;5.82;1.60;;;;;;;;;;5063162;28;20049;-81
2022/04/16 09:18:46;;;;;;;6.40;1.98;;;;;;;;;;5060741;28;20052;-81
2022/04/16 09:21:16;;;;;;;5.60;1.35;;;;;;;;;;5063105;28;20033;-81
2022/04/16 09:23:50;;;;;;;4.82;1.50;;;;;;;;;;5064317;28;20041;-82
2022/04/16 09:26:36;;;;;;;4.63;1.60;;;;;;;;;;5062373;28;20071;-82
2022/04/16 09:29:10;;;;;;;4.55;1.75;;;;;;;;;;5058736;28;20056;-82
2022/04/16 09:31:40;;;;;;;4.05;1.17;;;;;;;;;;5063126;28;20049;-81
2022/04/16 09:34:27;;;;;;;3.93;1.60;;;;;;;;;;5065694;28;20044;-82
2022/04/16 09:36:54;;;;;;;2.92;1.30;;;;;;;;;;5052627;28;20064;-82
2022/04/16 09:39:25;;;;;;;3.25;1.20;;;;;;;;;;5066078;28;20052;-83
2022/04/16 09:41:51;;;;;;;4.82;1.20;;;;;;;;;;5063330;28;20041;-81
2022/04/16 09:44:28;;;;;;;2.95;1.00;;;;;;;;;;5064517;28;20099;-81
2022/04/16 09:46:55;;;;;;;3.58;1.02;;;;;;;;;;5044849;28;20109;-82
2022/04/16 09:49:21;;;;;;;3.33;1.05;;;;;;;;;;5045459;28;20045;-80
2022/04/16 09:51:48;;;;;;;3.28;1.10;;;;;;;;;;5054423;28;20091;-81
2022/04/16 09:54:15;;;;;;;5.32;1.42;;;;;;;;;;5065155;28;20049;-82
2022/04/16 09:56:42;;;;;;;3.55;1.08;;;;;;;;;;5063120;28;20055;-81
2022/04/16 09:59:15;;;;;;;3.30;1.17;;;;;;;;;;5062005;28;20048;-81
2022/04/16 10:01:48;;;;;;;2.95;1.00;;;;;;;;;;5065600;28;20041;-80
2022/04/16 10:04:17;;;;;;;3.35;1.00;;;;;;;;;;5061125;28;20069;-80
2022/04/16 10:06:44;;;;;;;2.63;1.00;;;;;;;;;;5064504;28;20403;-80
2022/04/16 10:09:13;;;;;;;3.92;1.02;;;;;;;;;;5059387;28;20041;-79
2022/04/16 10:14:37;;;;;;;3.55;1.10;;;;;;;;;;5045704;28;20054;-81
2022/04/16 10:17:08;;;;;;;3.78;1.20;;;;;;;;;;5044736;28;20049;-79
2022/04/16 10:19:38;;;;;;;2.58;0.80;;;;;;;;;;5049630;28;20045;-81
2022/04/16 10:22:04;;;;;;;3.83;1.00;;;;;;;;;;5058904;28;20115;-80
2022/04/16 10:24:30;;;;;;;3.10;0.90;;;;;;;;;;5060842;28;20119;-80
2022/04/16 10:27:07;;;;;;;2.05;0.90;;;;;;;;;;5064712;28;20055;-78
2022/04/16 10:29:39;;;;;;;4.47;0.90;;;;;;;;;;5063101;28;20110;-79
2022/04/16 10:32:15;;;;;;;2.17;0.90;;;;;;;;;;5046457;28;20044;-79
2022/04/16 10:34:42;;;;;;;3.97;0.98;;;;;;;;;;5059199;28;20045;-79
2022/04/16 10:37:08;;;;;;;2.85;0.90;;;;;;;;;;5062847;28;20127;-79
2022/04/16 10:39:36;;;;;;;2.13;0.80;;;;;;;;;;5062967;28;20119;-80
2022/04/16 10:42:03;;;;;;;4.18;0.90;;;;;;;;;;5060333;28;20056;-80
2022/04/16 10:44:31;;;;;;;2.03;0.75;;;;;;;;;;5059443;28;20506;-80
2022/04/16 10:46:59;;;;;;;2.60;0.90;;;;;;;;;;5061923;28;20045;-79
2022/04/16 10:49:28;;;;;;;4.20;1.08;;;;;;;;;;5061395;28;20132;-80
2022/04/16 10:51:55;;;;;;;5.22;1.10;;;;;;;;;;5064733;28;20094;-79
2022/04/16 10:54:36;;;;;;;3.42;1.00;;;;;;;;;;5044789;28;20049;-79
2022/04/16 10:57:03;;;;;;;5.10;1.00;;;;;;;;;;5062518;28;20056;-78
2022/04/16 10:59:37;;;;;;;2.58;1.00;;;;;;;;;;5062437;28;20041;-78
2022/04/16 11:02:14;;;;;;;3.22;0.95;;;;;;;;;;5064275;28;20048;-78
2022/04/16 11:04:40;;;;;;;4.65;0.90;;;;;;;;;;5046922;28;20502;-79
2022/04/16 11:07:08;;;;;;;3.08;0.93;;;;;;;;;;5053361;28;20444;-80
2022/04/16 11:09:35;;;;;;;4.90;1.00;;;;;;;;;;5065859;28;20045;-78
2022/04/16 11:12:05;;;;;;;3.30;0.93;;;;;;;;;;5066781;28;20041;-78
2022/04/16 11:14:32;;;;;;;3.55;1.00;;;;;;;;;;5065402;28;20099;-79
2022/04/16 11:17:02;;;;;;;2.03;0.80;;;;;;;;;;5061436;28;20391;-77
2022/04/16 11:19:31;;;;;;;3.53;0.80;;;;;;;;;;5065839;28;20045;-80
2022/04/16 11:21:57;;;;;;;8.15;1.10;;;;;;;;;;5051591;28;20048;-79
2022/04/16 11:24:23;;;;;;;4.35;1.02;;;;;;;;;;5063102;28;20069;-80
2022/04/16 11:35:12;;;;;;;3.85;1.10;;;;;;;;;;5064145;28;20653;-80
2022/04/16 11:37:38;;;;;;;3.25;0.90;;;;;;;;;;5062381;28;20439;-78
2022/04/16 11:40:09;;;;;;;2.55;0.70;;;;;;;;;;5052896;28;20501;-79
2022/04/16 11:42:35;;;;;;;2.72;0.80;;;;;;;;;;5066597;28;20044;-79
2022/04/16 11:45:02;;;;;;;3.70;0.93;;;;;;;;;;5064075;28;20037;-79
2022/04/16 11:47:30;;;;;;;2.63;0.90;;;;;;;;;;5065044;28;20080;-78
2022/04/16 11:49:58;;;;;;;3.63;1.10;;;;;;;;;;5060996;28;20108;-80
2022/04/16 11:52:25;;;;;;;4.22;1.10;;;;;;;;;;5061571;28;20099;-79
2022/04/16 11:55:04;;;;;;;3.17;0.85;;;;;;;;;;5064941;28;20045;-79
2022/04/16 11:57:30;;;;;;;4.20;1.17;;;;;;;;;;5066766;28;20053;-79
2022/04/16 12:00:07;;;;;;;2.88;0.95;;;;;;;;;;5060995;28;20049;-77
2022/04/16 12:02:38;;;;;;;4.40;1.02;;;;;;;;;;5063225;28;20106;-79
2022/04/16 12:05:14;;;;;;;3.63;1.20;;;;;;;;;;5055393;28;20041;-80
2022/04/16 12:07:50;;;;;;;2.47;0.98;;;;;;;;;;5060453;28;20045;-80
2022/04/16 12:10:17;;;;;;;4.65;1.10;;;;;;;;;;5064888;28;20037;-79
2022/04/16 12:12:46;;;;;;;4.38;0.80;;;;;;;;;;5064310;28;20124;-77
2022/04/16 12:15:12;;;;;;;4.43;1.15;;;;;;;;;;5066602;28;20071;-79
2022/04/16 12:17:40;;;;;;;3.53;0.98;;;;;;;;;;5028862;28;20056;-80
2022/04/16 12:20:08;;;;;;;3.15;1.00;;;;;;;;;;5059714;28;20091;-79
2022/04/16 12:22:47;;;;;;;4.05;1.00;;;;;;;;;;5062034;28;20047;-78
2022/04/16 12:25:14;;;;;;;5.88;1.20;;;;;;;;;;5059897;28;20106;-80
2022/04/16 12:27:44;;;;;;;3.72;1.00;;;;;;;;;;5063480;28;20063;-80
2022/04/16 12:30:19;;;;;;;1.92;0.77;;;;;;;;;;5049001;28;20049;-80
2022/04/16 12:32:55;;;;;;;4.07;0.88;;;;;;;;;;5065019;28;20052;-79
2022/04/16 12:35:21;;;;;;;2.95;1.00;;;;;;;;;;5063238;28;20041;-80
2022/04/16 12:37:47;;;;;;;3.08;0.90;;;;;;;;;;5065350;28;20048;-80
2022/04/16 12:40:13;;;;;;;2.63;1.02;;;;;;;;;;5066286;28;20049;-79
2022/04/16 12:42:39;;;;;;;2.85;0.80;;;;;;;;;;5066796;28;20044;-79
2022/04/16 12:45:05;;;;;;;3.60;1.00;;;;;;;;;;5048839;28;20057;-80
2022/04/16 12:47:31;;;;;;;3.75;0.80;;;;;;;;;;5047739;28;20095;-81
2022/04/16 12:49:57;;;;;;;2.28;0.60;;;;;;;;;;5053512;28;20442;-78
2022/04/16 12:52:23;;;;;;;5.45;1.13;;;;;;;;;;5045144;28;20041;-80
2022/04/16 12:54:50;;;;;;;4.47;1.20;;;;;;;;;;5045760;28;20056;-79
2022/04/16 12:57:16;;;;;;;3.80;1.08;;;;;;;;;;5061482;28;20060;-80
2022/04/16 12:59:45;;;;;;;3.30;0.90;;;;;;;;;;5054895;28;20049;-78
2022/04/16 13:02:11;;;;;;;2.70;0.80;;;;;;;;;;5050272;28;20052;-82
2022/04/16 13:04:37;;;;;;;2.95;1.00;;;;;;;;;;5063330;28;20037;-80
2022/04/16 13:07:03;;;;;;;5.30;0.88;;;;;;;;;;5063051;28;20045;-79
2022/04/16 13:09:29;;;;;;;2.38;0.70;;;;;;;;;;5061348;28;20033;-80
2022/04/16 13:11:56;;;;;;;3.30;0.90;;;;;;;;;;5064245;28;20120;-79
2022/04/16 13:14:22;;;;;;;7.53;1.10;;;;;;;;;;5056166;28;20471;-78
2022/04/16 13:16:48;;;;;;;4.50;1.00;;;;;;;;;;5055856;28;20040;-78
2022/04/16 13:19:15;;;;;;;4.07;0.80;;;;;;;;;;5062993;28;20055;-78
2022/04/16 13:21:42;;;;;;;3.90;0.98;;;;;;;;;;5061735;28;20578;-78
2022/04/16 13:24:12;;;;;;;3.92;0.70;;;;;;;;;;5056856;28;20045;-80
2022/04/16 13:26:38;;;;;;;2.47;0.88;;;;;;;;;;5065941;28;20052;-80
2022/04/16 13:29:04;;;;;;;3.47;1.20;;;;;;;;;;5062760;28;20068;-79
2022/04/16 13:31:31;;;;;;;4.38;1.20;;;;;;;;;;5066152;28;20604;-79
2022/04/16 13:33:57;;;;;;;3.65;0.93;;;;;;;;;;5061009;28;20073;-79
2022/04/16 13:36:23;;;;;;;3.45;0.93;;;;;;;;;;5062881;28;20049;-78
2022/04/16 13:38:49;;;;;;;4.18;1.10;;;;;;;;;;5063716;28;20043;-79
2022/04/16 13:44:00;;;;;;;3.42;1.02;;;;;;;;;;5063536;28;20053;-78
2022/04/16 13:46:26;;;;;;;3.38;1.08;;;;;;;;;;5063507;28;20402;-77
2022/04/16 13:48:52;;;;;;;3.88;1.10;;;;;;;;;;5047511;28;20033;-79
2022/04/16 13:51:18;;;;;;;2.00;0.90;;;;;;;;;;5061612;28;20105;-78
2022/04/16 13:53:44;;;;;;;4.10;1.20;;;;;;;;;;5060394;28;20041;-80
2022/04/16 13:56:10;;;;;;;3.38;0.98;;;;;;;;;;5063393;28;20118;-79
2022/04/16 13:58:36;;;;;;;4.53;1.15;;;;;;;;;;5055170;28;20068;-80
2022/04/16 14:01:02;;;;;;;3.75;0.98;;;;;;;;;;5056011;28;20041;-79
2022/04/16 14:03:29;;;;;;;3.13;1.00;;;;;;;;;;5060177;28;20048;-79
2022/04/16 14:05:55;;;;;;;2.83;1.13;;;;;;;;;;5064382;28;20103;-79
2022/04/16 14:08:21;;;;;;;4.55;1.00;;;;;;;;;;5047485;28;20049;-78
2022/04/16 14:10:47;;;;;;;4.05;1.20;;;;;;;;;;5064966;28;20111;-79
2022/04/16 14:13:13;;;;;;;4.75;1.20;;;;;;;;;;5064388;28;20104;-78
2022/04/16 14:15:39;;;;;;;3.15;1.08;;;;;;;;;;5057395;28;20134;-79
2022/04/16 14:18:05;;;;;;;5.35;1.17;;;;;;;;;;5062291;28;20041;-79
2022/04/16 14:20:31;;;;;;;4.90;1.20;;;;;;;;;;5062772;28;20129;-79
2022/04/16 14:22:57;;;;;;;2.83;1.02;;;;;;;;;;5061854;28;20041;-79
2022/04/16 14:25:23;;;;;;;6.45;1.45;;;;;;;;;;5063315;28;20063;-78
2022/04/16 14:27:49;;;;;;;3.85;1.30;;;;;;;;;;5059021;28;20060;-79
2022/04/16 14:30:16;;;;;;;2.92;1.13;;;;;;;;;;5060341;28;20041;-79
2022/04/16 14:32:42;;;;;;;6.47;1.35;;;;;;;;;;5065072;28;20419;-78
2022/04/16 14:35:10;;;;;;;3.47;1.20;;;;;;;;;;5064715;28;20041;-79
2022/04/16 14:37:36;;;;;;;3.13;1.27;;;;;;;;;;5044358;28;20037;-79
2022/04/16 14:40:02;;;;;;;3.53;1.10;;;;;;;;;;5027336;28;20050;-79
2022/04/16 14:42:28;;;;;;;4.75;1.30;;;;;;;;;;5026683;28;20136;-80
2022/04/16 14:44:55;;;;;;;4.10;1.20;;;;;;;;;;5055706;28;20041;-80
2022/04/16 14:47:21;;;;;;;4.25;1.02;;;;;;;;;;5064251;28;20049;-79
2022/04/16 14:49:50;;;;;;;4.68;1.08;;;;;;;;;;5063867;28;20070;-80
2022/04/16 14:52:16;;;;;;;3.08;1.08;;;;;;;;;;5057553;28;20134;-79
2022/04/16 14:54:42;;;;;;;3.00;1.05;;;;;;;;;;5064926;28;20094;-79
2022/04/16 14:57:08;;;;;;;4.90;1.30;;;;;;;;;;5061456;28;20049;-79
2022/04/16 14:59:34;;;;;;;2.65;1.02;;;;;;;;;;5053078;28;20063;-80